Time;durP1;ratioP1;P1;durP2;ratioP2;P2;SDS_P1;SDS_P2;PMS_P1;PMS_P2;Temp;Humidity;BMP_temperature;BMP_pressure;BME280_temperature;BME280_humidity;BME280_pressure;Samples;Min_cycle;Max_cycle;Signal;HPM_P1;HPM_P2
2022/02/24 00:00:34;;;;;;;10.50;3.10;;;;;;;7.33;86.48;101602.84;5071561;28;20036;-55
2022/02/24 00:03:03;;;;;;;11.00;3.85;;;;;;;7.37;85.73;101593.94;5071832;28;20127;-53
2022/02/24 00:05:32;;;;;;;11.88;3.65;;;;;;;7.29;85.75;101593.41;5071943;28;20493;-55
2022/02/24 00:08:03;;;;;;;12.82;3.45;;;;;;;7.31;85.85;101595.94;5071467;28;20521;-53
2022/02/24 00:10:31;;;;;;;14.75;3.35;;;;;;;7.26;85.02;101583.91;5071783;28;20097;-55
2022/02/24 00:12:59;;;;;;;11.27;3.63;;;;;;;7.24;85.28;101584.88;5071803;28;20044;-55
2022/02/24 00:15:27;;;;;;;10.55;3.10;;;;;;;7.22;84.23;101573.63;5071890;28;20056;-54
2022/02/24 00:17:55;;;;;;;7.97;3.15;;;;;;;7.20;83.53;101571.09;5070796;28;20052;-55
2022/02/24 00:20:23;;;;;;;11.15;2.78;;;;;;;7.23;83.38;101575.34;5074175;28;20036;-54
2022/02/24 00:22:53;;;;;;;12.05;3.03;;;;;;;7.23;82.87;101568.34;5074958;28;20048;-52
2022/02/24 00:25:21;;;;;;;10.75;2.88;;;;;;;7.21;82.24;101557.09;5074982;28;20467;-54
2022/02/24 00:27:49;;;;;;;11.48;3.17;;;;;;;7.21;81.81;101556.22;5075319;28;20041;-55
2022/02/24 00:30:17;;;;;;;9.80;2.92;;;;;;;7.21;81.16;101548.38;5075141;28;20044;-55
2022/02/24 00:32:45;;;;;;;11.77;2.65;;;;;;;7.23;80.17;101551.81;5071109;28;20143;-56
2022/02/24 00:35:13;;;;;;;12.10;2.90;;;;;;;7.22;80.45;101542.25;5069896;28;20072;-52
2022/02/24 00:37:41;;;;;;;9.15;2.85;;;;;;;7.23;80.27;101547.41;5074787;28;20384;-53
2022/02/24 00:40:13;;;;;;;9.38;3.10;;;;;;;7.27;81.14;101538.53;5074548;28;20076;-55
2022/02/24 00:42:41;;;;;;;10.05;2.53;;;;;;;7.23;80.65;101542.16;5073086;28;20411;-55
2022/02/24 00:45:09;;;;;;;10.80;3.13;;;;;;;7.16;81.37;101538.09;5070080;28;20094;-54
2022/02/24 00:47:38;;;;;;;10.93;2.97;;;;;;;7.20;81.52;101541.44;5074194;28;20106;-55
2022/02/24 00:50:06;;;;;;;12.23;2.72;;;;;;;7.16;81.33;101540.72;5074071;28;20503;-55
2022/02/24 00:52:35;;;;;;;9.30;3.00;;;;;;;7.16;81.37;101525.03;5073963;28;20054;-56
2022/02/24 00:55:03;;;;;;;8.95;2.80;;;;;;;7.18;81.95;101532.81;5072798;28;20040;-54
2022/02/24 00:57:32;;;;;;;10.57;2.97;;;;;;;7.15;82.31;101533.78;5071560;28;20067;-55
2022/02/24 01:00:00;;;;;;;12.32;3.00;;;;;;;7.16;81.89;101525.03;5070625;28;20056;-55
2022/02/24 01:02:28;;;;;;;11.73;2.88;;;;;;;7.16;82.60;101525.03;5073708;28;20044;-54
2022/02/24 01:04:57;;;;;;;8.15;2.53;;;;;;;7.14;82.55;101523.38;5074362;28;20553;-54
2022/02/24 01:07:25;;;;;;;9.55;2.60;;;;;;;7.16;83.26;101521.53;5074297;28;20071;-56
2022/02/24 01:09:53;;;;;;;10.88;3.67;;;;;;;7.12;83.29;101518.22;5074090;28;20491;-54
2022/02/24 01:12:21;;;;;;;12.88;3.75;;;;;;;7.12;83.68;101507.75;5073987;28;20059;-55
2022/02/24 01:14:50;;;;;;;12.68;3.47;;;;;;;7.10;84.33;101501.72;5073642;28;20436;-55
2022/02/24 01:17:22;;;;;;;11.80;3.15;;;;;;;7.11;84.47;101503.44;5073730;28;20139;-55
2022/02/24 01:19:51;;;;;;;9.82;2.95;;;;;;;7.11;84.29;101506.88;5073810;28;20542;-55
2022/02/24 01:22:21;;;;;;;8.73;2.60;;;;;;;7.08;84.92;101495.72;5073950;28;20044;-55
2022/02/24 01:24:49;;;;;;;14.82;3.55;;;;;;;7.10;85.63;101493.88;5073533;28;20044;-54
2022/02/24 01:27:19;;;;;;;11.95;3.47;;;;;;;7.07;85.77;101494.00;5073815;28;20147;-55
2022/02/24 01:29:47;;;;;;;11.93;3.28;;;;;;;7.08;86.53;101482.63;5073747;28;20045;-51
2022/02/24 01:32:17;;;;;;;10.05;3.17;;;;;;;7.11;86.76;101482.50;5073499;28;20110;-55
2022/02/24 01:34:45;;;;;;;13.65;3.10;;;;;;;7.19;86.41;101469.13;5073644;28;20059;-56
2022/02/24 01:37:13;;;;;;;14.40;4.00;;;;;;;7.12;86.04;101473.75;5073500;28;20151;-54
2022/02/24 01:39:42;;;;;;;16.88;3.70;;;;;;;7.09;86.66;101474.72;5073334;28;20541;-53
2022/02/24 01:42:10;;;;;;;9.55;3.28;;;;;;;7.07;86.33;101465.22;5073370;28;20049;-54
2022/02/24 01:44:42;;;;;;;13.05;3.80;;;;;;;7.05;86.08;101454.81;5073395;28;20139;-54
2022/02/24 01:47:11;;;;;;;11.13;3.78;;;;;;;7.08;86.15;101443.41;5073462;28;20044;-56
2022/02/24 01:49:42;;;;;;;11.93;3.72;;;;;;;7.06;85.91;101438.22;5073237;28;20056;-54
2022/02/24 01:52:12;;;;;;;15.52;4.90;;;;;;;7.13;84.88;101428.38;5073183;28;20484;-54
2022/02/24 01:54:42;;;;;;;13.40;4.30;;;;;;;7.08;84.54;101432.94;5073255;28;20554;-53
2022/02/24 01:57:10;;;;;;;15.70;4.35;;;;;;;7.05;84.12;101431.28;5073030;28;20044;-55
2022/02/24 01:59:39;;;;;;;15.57;3.70;;;;;;;7.01;84.39;101423.63;5073168;28;20094;-56
2022/02/24 02:02:07;;;;;;;15.13;3.85;;;;;;;7.02;84.17;101417.47;5069216;28;20044;-43
2022/02/24 02:04:36;;;;;;;14.75;4.30;;;;;;;6.99;85.20;101417.59;5068677;28;20123;-54
2022/02/24 02:07:06;;;;;;;12.95;3.58;;;;;;;6.98;85.35;101405.44;5072043;28;20048;-47
2022/02/24 02:09:35;;;;;;;14.15;4.13;;;;;;;6.98;85.77;101405.44;5072901;28;20056;-53
2022/02/24 02:12:05;;;;;;;10.07;3.80;;;;;;;6.94;85.33;101399.50;5073198;28;20394;-54
2022/02/24 02:14:37;;;;;;;12.35;3.60;;;;;;;6.96;85.77;101402.06;5073193;28;20442;-54
2022/02/24 02:17:06;;;;;;;10.00;3.40;;;;;;;6.99;84.58;101391.47;5072462;28;20043;-47
2022/02/24 02:19:37;;;;;;;11.55;3.53;;;;;;;6.91;85.20;101392.63;5072510;28;20091;-54
2022/02/24 02:22:07;;;;;;;11.60;4.15;;;;;;;6.99;85.21;101381.00;5070909;28;20048;-56
2022/02/24 02:24:37;;;;;;;9.32;3.83;;;;;;;6.97;85.78;101378.44;5069038;28;20574;-55
2022/02/24 02:27:06;;;;;;;11.15;3.70;;;;;;;6.91;84.90;101373.47;5070626;28;20052;-47
2022/02/24 02:29:34;;;;;;;12.07;3.45;;;;;;;6.89;85.64;101363.06;5072190;28;20048;-46
2022/02/24 02:32:04;;;;;;;17.70;4.30;;;;;;;6.85;85.17;101366.72;5066427;28;20071;-47
2022/02/24 02:34:32;;;;;;;15.32;3.95;;;;;;;6.85;84.67;101356.25;5069495;28;20379;-45
2022/02/24 02:37:00;;;;;;;13.50;3.42;;;;;;;6.88;84.45;101357.91;5071567;28;20072;-55
2022/02/24 02:39:29;;;;;;;10.07;3.30;;;;;;;6.91;84.33;101348.19;5072659;28;20510;-53
2022/02/24 02:41:57;;;;;;;9.50;3.25;;;;;;;6.87;83.59;101346.59;5072326;28;20052;-56
2022/02/24 02:44:25;;;;;;;7.75;3.20;;;;;;;6.86;83.79;101354.50;5072350;28;20092;-56
2022/02/24 02:46:54;;;;;;;10.57;3.80;;;;;;;6.87;83.34;101346.59;5066786;28;20123;-54
2022/02/24 02:49:22;;;;;;;11.07;3.05;;;;;;;6.85;82.98;101348.41;5070204;28;20078;-56
2022/02/24 02:51:52;;;;;;;9.88;2.78;;;;;;;6.89;82.76;101344.75;5072410;28;20052;-54
2022/02/24 02:54:20;;;;;;;15.35;3.53;;;;;;;6.86;82.50;101352.75;5072073;28;20071;-56
2022/02/24 02:56:49;;;;;;;10.95;3.15;;;;;;;6.84;82.26;101349.31;5071916;28;20127;-55
2022/02/24 02:59:19;;;;;;;9.75;2.45;;;;;;;6.87;82.80;101341.38;5072408;28;20037;-55
2022/02/24 03:01:51;;;;;;;10.18;2.55;;;;;;;6.86;82.12;101333.59;5072356;28;20387;-54
2022/02/24 03:04:20;;;;;;;14.43;2.63;;;;;;;6.86;82.20;101318.75;5072483;28;20094;-55
2022/02/24 03:06:48;;;;;;;10.02;3.00;;;;;;;6.86;81.27;101316.13;5072297;28;20051;-55
2022/02/24 03:09:17;;;;;;;6.50;2.25;;;;;;;6.88;81.75;101316.91;5070795;28;20052;-54
2022/02/24 03:11:45;;;;;;;9.13;2.63;;;;;;;6.91;80.83;101313.31;5068508;28;20044;-55
2022/02/24 03:14:14;;;;;;;8.32;2.45;;;;;;;6.89;80.83;101308.16;5069752;28;20530;-56
2022/02/24 03:16:43;;;;;;;9.73;2.35;;;;;;;6.93;80.24;101312.34;5072030;28;20530;-53
2022/02/24 03:19:11;;;;;;;8.82;2.25;;;;;;;6.95;80.60;101312.25;5072049;28;20036;-55
2022/02/24 03:21:40;;;;;;;10.95;2.50;;;;;;;6.90;80.80;101302.00;5072055;28;20106;-54
2022/02/24 03:24:08;;;;;;;8.82;2.60;;;;;;;6.91;80.09;101290.66;5072074;28;20052;-55
2022/02/24 03:26:39;;;;;;;15.10;2.80;;;;;;;6.90;79.69;101298.56;5072236;28;20446;-55
2022/02/24 03:29:07;;;;;;;13.27;2.60;;;;;;;6.94;80.18;101289.69;5071987;28;20048;-55
2022/02/24 03:31:36;;;;;;;11.55;2.72;;;;;;;6.98;79.53;101290.38;5072009;28;20458;-51
2022/02/24 03:34:05;;;;;;;13.52;2.72;;;;;;;6.93;80.17;101282.75;5069369;28;20049;-56
2022/02/24 03:36:33;;;;;;;12.45;3.33;;;;;;;6.87;79.93;101280.38;5068482;28;20090;-53
2022/02/24 03:39:01;;;;;;;11.75;2.55;;;;;;;6.87;79.99;101277.75;5071785;28;20511;-55
2022/02/24 03:41:29;;;;;;;13.10;2.33;;;;;;;6.86;80.08;101276.06;5071815;28;20140;-54
2022/02/24 03:43:58;;;;;;;9.48;2.88;;;;;;;6.93;79.97;101267.03;5071959;28;20510;-54
2022/02/24 03:46:26;;;;;;;10.32;2.65;;;;;;;6.87;80.03;101268.16;5071936;28;20062;-55
2022/02/24 03:48:56;;;;;;;8.02;2.40;;;;;;;6.83;80.30;101258.75;5074290;28;20511;-56
2022/02/24 03:51:24;;;;;;;12.07;2.92;;;;;;;6.89;79.98;101258.47;5075612;28;20047;-55
2022/02/24 03:53:52;;;;;;;9.18;2.45;;;;;;;6.93;80.01;101253.97;5075733;28;20044;-55
2022/02/24 03:56:20;;;;;;;9.60;2.50;;;;;;;6.87;80.72;101249.84;5075491;28;20048;-56
2022/02/24 03:58:48;;;;;;;11.35;2.80;;;;;;;6.85;80.72;101229.91;5075829;28;20079;-55
2022/02/24 04:01:18;;;;;;;10.93;2.42;;;;;;;6.84;81.43;101238.66;5074726;28;20150;-54
2022/02/24 04:03:46;;;;;;;10.63;2.53;;;;;;;6.84;81.88;101221.22;5074899;28;20044;-55
2022/02/24 04:06:16;;;;;;;11.13;2.50;;;;;;;6.84;81.84;101229.06;5074176;28;20102;-56
2022/02/24 04:08:44;;;;;;;8.80;2.50;;;;;;;6.85;82.50;101229.91;5071911;28;20384;-56
2022/02/24 04:11:12;;;;;;;12.43;2.92;;;;;;;6.84;82.76;101233.44;5073710;28;20052;-55
2022/02/24 04:13:40;;;;;;;13.43;3.47;;;;;;;6.85;82.36;101227.31;5072901;28;20464;-54
2022/02/24 04:16:08;;;;;;;16.70;3.75;;;;;;;6.84;82.66;101223.81;5070311;28;20546;-55
2022/02/24 04:18:37;;;;;;;9.50;2.45;;;;;;;6.82;82.58;101217.81;5075047;28;20538;-56
2022/02/24 04:21:08;;;;;;;9.23;2.80;;;;;;;6.83;83.25;101219.53;5075121;28;20049;-56
2022/02/24 04:23:37;;;;;;;12.18;2.60;;;;;;;6.77;82.76;101211.94;5075003;28;20099;-56
2022/02/24 04:26:05;;;;;;;12.95;3.25;;;;;;;6.82;83.28;101211.75;5074534;28;20123;-54
2022/02/24 04:28:33;;;;;;;9.40;3.17;;;;;;;6.77;83.25;101214.56;5074410;28;20094;-54
2022/02/24 04:31:02;;;;;;;11.07;2.92;;;;;;;6.80;83.79;101203.97;5074771;28;20060;-54
2022/02/24 04:33:30;;;;;;;10.40;2.60;;;;;;;6.78;84.01;101203.19;5074765;28;20041;-54
2022/02/24 04:35:58;;;;;;;10.88;2.65;;;;;;;6.83;84.39;101200.38;5074646;28;20503;-54
2022/02/24 04:38:26;;;;;;;11.45;2.90;;;;;;;6.78;85.52;101197.97;5074680;28;20078;-54
2022/02/24 04:40:55;;;;;;;8.77;3.40;;;;;;;6.75;85.91;101203.34;5074466;28;20124;-56
2022/02/24 04:43:23;;;;;;;10.45;3.03;;;;;;;6.76;86.52;101187.56;5071211;28;20503;-56
2022/02/24 04:45:51;;;;;;;13.65;3.97;;;;;;;6.71;86.70;101183.47;5070964;28;20447;-54
2022/02/24 04:48:21;;;;;;;11.20;3.10;;;;;;;6.70;87.46;101181.75;5074371;28;20049;-55
2022/02/24 04:50:49;;;;;;;10.00;3.30;;;;;;;6.70;87.79;101181.75;5074658;28;20435;-54
2022/02/24 04:53:18;;;;;;;12.85;3.03;;;;;;;6.70;88.06;101180.00;5071895;28;20049;-56
2022/02/24 04:55:46;;;;;;;16.20;3.50;;;;;;;6.68;87.90;101166.16;5070899;28;20098;-54
2022/02/24 04:58:18;;;;;;;10.48;2.97;;;;;;;6.69;88.57;101178.28;5074160;28;20052;-56
2022/02/24 05:00:47;;;;;;;9.18;3.00;;;;;;;6.71;87.80;101170.41;5072165;28;20052;-55
2022/02/24 05:03:15;;;;;;;10.90;3.30;;;;;;;6.72;87.93;101177.31;5074187;28;20033;-54
2022/02/24 05:05:44;;;;;;;7.40;2.70;;;;;;;6.76;88.66;101168.41;5074260;28;20484;-56
2022/02/24 05:08:12;;;;;;;15.27;3.55;;;;;;;6.73;88.71;101168.56;5074339;28;20053;-56
2022/02/24 05:10:40;;;;;;;11.02;3.00;;;;;;;6.72;89.05;101172.06;5074015;28;20047;-54
2022/02/24 05:13:08;;;;;;;11.25;2.53;;;;;;;6.82;87.88;101168.16;5068915;28;20044;-55
2022/02/24 05:15:38;;;;;;;11.07;3.40;;;;;;;6.82;87.93;101168.16;5072534;28;20094;-56
2022/02/24 05:18:06;;;;;;;10.23;3.08;;;;;;;6.80;88.02;101156.91;5074124;28;20056;-55
2022/02/24 05:20:35;;;;;;;15.82;3.05;;;;;;;6.79;88.23;101150.00;5073918;28;20078;-51
2022/02/24 05:23:03;;;;;;;11.98;2.97;;;;;;;6.77;88.73;101151.81;5073643;28;20044;-55
2022/02/24 05:25:35;;;;;;;12.35;3.15;;;;;;;6.78;88.48;101148.28;5073987;28;20076;-54
2022/02/24 05:28:06;;;;;;;12.73;2.90;;;;;;;6.76;88.59;101144.88;5073716;28;20728;-55
2022/02/24 05:30:35;;;;;;;10.40;2.67;;;;;;;6.82;88.40;101133.31;5073852;28;20054;-56
2022/02/24 05:33:05;;;;;;;9.13;3.28;;;;;;;6.77;88.94;101130.91;5073847;28;20040;-55
2022/02/24 05:35:34;;;;;;;11.77;2.72;;;;;;;6.75;89.16;101137.97;5069999;28;20052;-55
2022/02/24 05:38:03;;;;;;;13.52;3.67;;;;;;;6.76;89.03;101121.34;5070943;28;20058;-57
2022/02/24 05:40:31;;;;;;;10.73;3.42;;;;;;;6.75;88.97;101122.28;5073280;28;20090;-55
2022/02/24 05:43:00;;;;;;;10.52;3.53;;;;;;;6.72;89.24;101123.28;5072949;28;20086;-54
2022/02/24 05:45:28;;;;;;;12.38;2.67;;;;;;;6.74;89.29;101113.59;5073246;28;20048;-56
2022/02/24 05:47:56;;;;;;;11.30;3.17;;;;;;;6.79;89.50;101105.56;5073503;28;20059;-55
2022/02/24 05:50:25;;;;;;;10.98;3.60;;;;;;;6.78;89.83;101106.47;5072978;28;20052;-56
2022/02/24 05:52:53;;;;;;;12.27;3.20;;;;;;;6.74;89.09;101102.28;5072984;28;20048;-56
2022/02/24 05:55:21;;;;;;;9.32;3.08;;;;;;;6.77;89.62;101100.38;5071106;28;20398;-55
2022/02/24 05:57:50;;;;;;;16.08;4.22;;;;;;;6.72;89.80;101097.13;5069377;28;20545;-55
2022/02/24 06:00:18;;;;;;;12.60;2.92;;;;;;;6.70;89.57;101092.88;5073063;28;20399;-54
2022/02/24 06:02:48;;;;;;;11.18;3.00;;;;;;;6.71;90.02;101090.22;5072143;28;20037;-55
2022/02/24 06:05:17;;;;;;;13.35;3.15;;;;;;;6.71;90.56;101099.81;5069750;28;20412;-53
2022/02/24 06:07:47;;;;;;;11.48;3.28;;;;;;;6.64;91.95;101085.31;5071735;28;20048;-55
2022/02/24 06:10:15;;;;;;;12.85;2.67;;;;;;;6.64;93.23;101072.25;5073099;28;20060;-55
2022/02/24 06:12:43;;;;;;;10.85;3.45;;;;;;;6.60;92.92;101069.78;5072880;28;20408;-53
2022/02/24 06:15:13;;;;;;;11.02;2.92;;;;;;;6.57;93.48;101062.09;5071985;28;20574;-55
2022/02/24 06:17:41;;;;;;;7.53;2.80;;;;;;;6.57;93.68;101067.31;5072929;28;20056;-53
2022/02/24 06:20:10;;;;;;;8.98;2.97;;;;;;;6.58;93.26;101061.13;5072802;28;20367;-55
2022/02/24 06:22:38;;;;;;;11.73;3.25;;;;;;;6.57;93.66;101071.66;5072841;28;20549;-55
2022/02/24 06:25:09;;;;;;;11.80;2.88;;;;;;;6.54;93.36;101069.19;5072910;28;20051;-54
2022/02/24 06:27:37;;;;;;;16.25;3.25;;;;;;;6.58;92.88;101068.16;5072916;28;20076;-55
2022/02/24 06:30:06;;;;;;;9.52;2.55;;;;;;;6.63;92.23;101071.41;5072552;28;20135;-52
2022/02/24 06:32:37;;;;;;;12.35;3.15;;;;;;;6.65;92.74;101060.88;5072604;28;20044;-54
2022/02/24 06:35:06;;;;;;;9.73;2.72;;;;;;;6.64;93.19;101056.56;5072678;28;20456;-54
2022/02/24 06:37:34;;;;;;;16.05;3.22;;;;;;;6.60;92.30;101063.72;5072736;28;20079;-56
2022/02/24 06:40:03;;;;;;;14.38;2.88;;;;;;;6.57;92.09;101067.31;5069036;28;20052;-52
2022/02/24 06:42:32;;;;;;;17.08;3.13;;;;;;;6.64;91.79;101056.56;5068526;28;20042;-55
2022/02/24 06:45:00;;;;;;;18.58;3.25;;;;;;;6.66;92.48;101052.13;5072731;28;20048;-52
2022/02/24 06:47:28;;;;;;;13.27;3.80;;;;;;;6.60;92.26;101048.88;5072544;28;20076;-54
2022/02/24 06:49:56;;;;;;;19.45;3.15;;;;;;;6.63;93.22;101047.06;5072460;28;20072;-53
2022/02/24 06:52:24;;;;;;;12.75;3.05;;;;;;;6.52;94.40;101042.31;5072316;28;20052;-52
2022/02/24 06:54:52;;;;;;;11.82;3.15;;;;;;;6.50;95.53;101031.91;5072388;28;20048;-54
2022/02/24 06:57:21;;;;;;;12.68;3.08;;;;;;;6.49;96.37;101032.84;5072598;28;20114;-54
2022/02/24 06:59:50;;;;;;;10.70;3.13;;;;;;;6.54;96.75;101030.84;5072641;28;20511;-51
2022/02/24 07:02:18;;;;;;;11.75;2.65;;;;;;;6.49;97.24;101032.84;5072604;28;20044;-52
2022/02/24 07:04:51;;;;;;;8.25;2.17;;;;;;;6.48;97.23;101027.69;5068451;28;20044;-55
2022/02/24 07:07:20;;;;;;;14.65;2.95;;;;;;;6.43;99.06;101022.66;5069291;28;20132;-54
2022/02/24 07:09:48;;;;;;;11.35;2.85;;;;;;;6.42;99.03;101024.41;5072164;28;20400;-55
2022/02/24 07:12:16;;;;;;;6.53;2.35;;;;;;;6.43;98.50;101023.50;5071138;28;20102;-55
2022/02/24 07:14:44;;;;;;;14.93;3.17;;;;;;;6.44;98.69;101021.72;5070008;28;20045;-56
2022/02/24 07:17:14;;;;;;;9.20;3.42;;;;;;;6.44;98.04;101019.13;5066948;28;20078;-55
2022/02/24 07:19:42;;;;;;;10.23;2.47;;;;;;;6.45;98.00;101018.22;5071444;28;20048;-44
2022/02/24 07:22:15;;;;;;;10.93;2.90;;;;;;;6.44;97.95;101019.13;5068603;28;20041;-55
2022/02/24 07:24:43;;;;;;;11.02;2.75;;;;;;;6.44;97.58;101008.66;5072916;28;20044;-44
2022/02/24 07:27:12;;;;;;;10.82;2.80;;;;;;;6.52;96.45;101010.94;5076067;28;20040;-56
2022/02/24 07:29:40;;;;;;;13.18;2.67;;;;;;;6.48;96.71;101005.00;5075901;28;20126;-56
2022/02/24 07:32:11;;;;;;;12.52;2.60;;;;;;;6.52;97.62;101005.72;5070471;28;20410;-45
2022/02/24 07:34:40;;;;;;;9.98;2.55;;;;;;;6.53;98.17;101003.03;5073027;28;20045;-45
2022/02/24 07:37:08;;;;;;;12.20;2.30;;;;;;;6.53;97.71;101002.16;5075796;28;20049;-44
2022/02/24 07:39:37;;;;;;;9.48;2.47;;;;;;;6.55;99.32;101001.19;5075586;28;20135;-46
2022/02/24 07:42:05;;;;;;;10.13;2.15;;;;;;;6.53;99.62;100994.31;5075859;28;20061;-56
2022/02/24 07:44:33;;;;;;;10.80;2.65;;;;;;;6.53;99.69;101004.78;5070716;28;20574;-54
2022/02/24 07:47:02;;;;;;;12.27;2.92;;;;;;;6.54;99.64;101001.25;5070858;28;20070;-54
2022/02/24 07:49:30;;;;;;;10.23;2.90;;;;;;;6.49;99.24;101000.59;5073997;28;20048;-56
2022/02/24 07:51:59;;;;;;;11.73;2.75;;;;;;;6.50;98.18;100999.69;5073610;28;20475;-55
2022/02/24 07:54:27;;;;;;;9.15;2.53;;;;;;;6.55;98.29;100995.13;5072057;28;20095;-54
2022/02/24 07:56:55;;;;;;;9.05;2.20;;;;;;;6.54;96.32;100991.63;5074433;28;20118;-55
2022/02/24 07:59:23;;;;;;;9.65;2.08;;;;;;;6.63;95.41;100990.38;5075537;28;20553;-54
2022/02/24 08:01:52;;;;;;;8.45;2.40;;;;;;;6.68;96.39;100987.53;5073186;28;20064;-56
2022/02/24 08:04:20;;;;;;;9.60;2.72;;;;;;;6.75;95.77;100986.38;5070627;28;20075;-55
2022/02/24 08:06:48;;;;;;;8.52;2.50;;;;;;;6.74;94.44;100989.88;5073918;28;20475;-53
2022/02/24 08:09:18;;;;;;;6.75;1.58;;;;;;;6.80;94.19;100979.13;5075492;28;20545;-55
2022/02/24 08:12:38;;;;;;;9.40;2.22;;;;;;;6.79;94.32;100981.81;5074927;28;20102;-55
2022/02/24 08:14:36;;;;;;;9.43;1.80;;;;;;;6.86;95.35;100981.47;5075227;28;20052;-55
2022/02/24 08:17:04;;;;;;;9.98;2.00;;;;;;;6.83;96.57;100973.78;5075156;28;20049;-56
2022/02/24 08:19:33;;;;;;;7.82;2.10;;;;;;;6.79;96.46;100969.63;5075076;28;20062;-56
2022/02/24 08:22:02;;;;;;;9.63;2.03;;;;;;;6.81;97.11;100969.53;5074903;28;20041;-55
2022/02/24 08:24:35;;;;;;;9.80;1.85;;;;;;;6.90;96.89;100969.94;5074931;28;20390;-55
2022/02/24 08:27:03;;;;;;;6.13;2.00;;;;;;;6.83;97.41;100957.22;5073636;28;20361;-55
2022/02/24 08:29:31;;;;;;;8.88;1.90;;;;;;;6.82;96.52;100951.16;5071532;28;20527;-55
2022/02/24 08:31:59;;;;;;;8.13;1.90;;;;;;;6.73;96.27;100939.34;5072519;28;20507;-53
2022/02/24 08:34:27;;;;;;;8.32;2.08;;;;;;;6.78;97.04;100944.38;5072578;28;20064;-54
2022/02/24 08:36:55;;;;;;;13.00;2.45;;;;;;;6.83;97.05;100921.50;5071297;28;20044;-55
2022/02/24 08:39:24;;;;;;;9.73;2.33;;;;;;;6.85;94.81;100927.47;5072419;28;20131;-54
2022/02/24 08:41:54;;;;;;;6.25;2.03;;;;;;;6.77;94.85;100922.59;5072897;28;20055;-55
2022/02/24 08:44:22;;;;;;;8.95;2.38;;;;;;;6.84;94.62;100917.94;5070854;28;20056;-55
2022/02/24 08:46:50;;;;;;;7.53;2.17;;;;;;;6.90;93.65;100915.03;5072972;28;20049;-54
2022/02/24 08:49:18;;;;;;;10.70;3.35;;;;;;;6.94;92.20;100910.50;5072895;28;20060;-44
2022/02/24 08:51:46;;;;;;;7.72;2.20;;;;;;;7.03;92.15;100906.59;5074422;28;20045;-45
2022/02/24 08:54:15;;;;;;;9.38;2.85;;;;;;;7.24;91.01;100910.75;5107000;28;20409;-48
2022/02/24 08:56:44;;;;;;;7.80;2.20;;;;;;;7.33;89.88;100906.81;5074462;28;20442;-47
2022/02/24 08:59:13;;;;;;;9.55;2.47;;;;;;;7.35;88.44;100905.00;5074265;28;20059;-48
2022/02/24 09:01:41;;;;;;;8.35;2.40;;;;;;;7.29;88.71;100902.66;5074140;28;20076;-46
2022/02/24 09:04:10;;;;;;;9.95;1.98;;;;;;;7.38;89.18;100901.38;5073437;28;20083;-47
2022/02/24 09:06:38;;;;;;;10.30;2.25;;;;;;;7.37;88.02;100897.88;5070789;28;20041;-45
2022/02/24 09:09:06;;;;;;;10.50;2.35;;;;;;;7.40;86.96;100895.13;5072424;28;20066;-46
2022/02/24 09:11:34;;;;;;;9.45;2.13;;;;;;;7.42;87.08;100892.44;5074156;28;20051;-42
2022/02/24 09:14:02;;;;;;;9.93;1.92;;;;;;;7.39;87.39;100884.72;5074031;28;20056;-43
2022/02/24 09:16:32;;;;;;;9.20;1.80;;;;;;;7.40;86.35;100881.19;5073444;28;20106;-45
2022/02/24 09:19:00;;;;;;;9.95;1.90;;;;;;;7.45;85.41;100871.34;5070274;28;20059;-44
2022/02/24 09:21:28;;;;;;;8.43;1.95;;;;;;;7.47;86.58;100872.09;5071847;28;20711;-44
2022/02/24 09:23:56;;;;;;;7.90;1.70;;;;;;;7.54;85.79;100851.69;5073755;28;20131;-49
2022/02/24 09:26:24;;;;;;;10.52;2.05;;;;;;;7.49;85.20;100838.84;5073734;28;20079;-44
2022/02/24 09:28:53;;;;;;;7.90;2.20;;;;;;;7.52;84.08;100828.22;5073776;28;20124;-43
2022/02/24 09:31:21;;;;;;;11.60;2.08;;;;;;;7.82;83.76;100835.38;5071566;28;20079;-56
2022/02/24 09:33:51;;;;;;;9.52;1.90;;;;;;;7.77;82.69;100829.53;5070702;28;20059;-44
2022/02/24 09:36:19;;;;;;;9.38;2.10;;;;;;;7.88;83.46;100821.09;5071351;28;20044;-56
2022/02/24 09:38:47;;;;;;;7.75;1.88;;;;;;;8.08;82.19;100812.16;5073605;28;20387;-56
2022/02/24 09:41:15;;;;;;;9.10;1.77;;;;;;;8.20;81.24;100813.25;5073298;28;20453;-54
2022/02/24 09:43:44;;;;;;;7.00;2.00;;;;;;;8.11;81.00;100811.97;5073368;28;20442;-56
2022/02/24 09:46:17;;;;;;;8.23;2.03;;;;;;;8.02;80.89;100804.66;5070924;28;20047;-55
2022/02/24 09:48:46;;;;;;;8.23;2.03;;;;;;;8.04;80.44;100808.03;5069399;28;20056;-44
2022/02/24 09:51:18;;;;;;;8.13;2.08;;;;;;;8.13;81.13;100803.13;5072201;28;20060;-43
2022/02/24 09:53:48;;;;;;;9.93;2.58;;;;;;;8.21;79.93;100797.47;5069520;28;20048;-55
2022/02/24 09:56:18;;;;;;;9.88;2.10;;;;;;;8.21;80.71;100779.13;5070324;28;20040;-55
2022/02/24 09:58:47;;;;;;;8.88;1.90;;;;;;;8.23;80.36;100772.00;5073176;28;20051;-43
2022/02/24 10:01:17;;;;;;;6.72;1.60;;;;;;;8.21;79.17;100763.41;5072992;28;20098;-45
2022/02/24 10:03:54;;;;;;;7.45;1.67;;;;;;;8.27;79.48;100754.34;5072780;28;20041;-44
2022/02/24 10:06:34;;;;;;;7.90;1.73;;;;;;;8.29;78.59;100748.09;5072872;28;20044;-55
2022/02/24 10:09:02;;;;;;;6.35;1.60;;;;;;;8.35;78.09;100746.06;5072953;28;20059;-44
2022/02/24 10:11:31;;;;;;;6.45;1.40;;;;;;;8.41;77.98;100740.44;5070984;28;20387;-43
2022/02/24 10:14:23;;;;;;;9.60;2.00;;;;;;;8.55;77.72;100748.41;5069304;28;20036;-55
2022/02/24 10:16:54;;;;;;;9.70;1.83;;;;;;;8.53;77.18;100733.69;5072536;28;20071;-55
2022/02/24 10:19:30;;;;;;;5.93;1.60;;;;;;;8.52;77.38;100732.84;5072731;28;20072;-55
2022/02/24 10:22:18;;;;;;;8.88;1.85;;;;;;;8.57;77.00;100714.22;5072478;28;20051;-56
2022/02/24 10:24:56;;;;;;;5.85;1.45;;;;;;;8.70;77.48;100702.09;5072481;28;20131;-44
2022/02/24 10:27:27;;;;;;;7.22;1.38;;;;;;;8.75;76.26;100701.78;5072734;28;20475;-56
2022/02/24 10:30:04;;;;;;;6.13;1.67;;;;;;;8.76;76.15;100693.00;5071260;28;20049;-56
2022/02/24 10:32:34;;;;;;;11.55;1.95;;;;;;;8.92;75.46;100691.13;5067793;28;20052;-57
2022/02/24 10:35:25;;;;;;;6.05;1.80;;;;;;;9.07;74.51;100689.38;5071260;28;20499;-55
2022/02/24 10:38:07;;;;;;;11.02;2.03;;;;;;;9.32;74.21;100679.13;5072555;28;20048;-56
2022/02/24 10:40:37;;;;;;;7.55;2.20;;;;;;;9.22;73.84;100663.97;5072596;28;20055;-56
2022/02/24 10:43:14;;;;;;;11.50;1.60;;;;;;;9.22;74.44;100668.38;5072339;28;20052;-55
2022/02/24 10:45:44;;;;;;;11.40;1.67;;;;;;;9.43;74.10;100645.19;5068407;28;20499;-57
2022/02/24 10:48:13;;;;;;;7.57;1.60;;;;;;;10.13;72.28;100649.44;5066147;28;20058;-57
2022/02/24 10:50:46;;;;;;;10.82;2.53;;;;;;;10.58;69.36;100649.09;5072391;28;20132;-45
2022/02/24 10:53:20;;;;;;;5.50;1.67;;;;;;;10.68;69.68;100644.06;5072279;28;20049;-45
2022/02/24 10:56:06;;;;;;;10.57;1.70;;;;;;;10.87;67.93;100636.56;5069656;28;20045;-43
2022/02/24 10:58:37;;;;;;;8.77;1.48;;;;;;;11.08;68.23;100618.41;5068468;28;20044;-56
2022/02/24 11:01:14;;;;;;;11.00;2.33;;;;;;;11.42;65.63;100608.09;5072049;28;20049;-48
2022/02/24 11:03:45;;;;;;;7.25;1.50;;;;;;;11.62;64.57;100598.75;5072201;28;20565;-46
2022/02/24 11:06:14;;;;;;;5.85;1.60;;;;;;;11.61;64.84;100593.59;5072026;28;20043;-57
2022/02/24 11:08:45;;;;;;;6.25;1.50;;;;;;;11.61;64.83;100589.16;5071981;28;20044;-55
2022/02/24 11:11:19;;;;;;;8.73;1.73;;;;;;;11.81;63.39;100584.22;5068591;28;20052;-47
2022/02/24 11:13:48;;;;;;;15.02;1.95;;;;;;;12.33;62.37;100569.75;5069680;28;20052;-57
2022/02/24 11:16:16;;;;;;;9.07;1.58;;;;;;;12.31;60.64;100571.69;5072122;28;20043;-57
2022/02/24 11:18:45;;;;;;;9.13;1.73;;;;;;;12.26;61.64;100565.09;5071918;28;20054;-56
2022/02/24 11:21:15;;;;;;;6.13;1.55;;;;;;;12.88;59.97;100565.56;5070726;28;20049;-57
2022/02/24 11:23:47;;;;;;;11.20;1.95;;;;;;;12.65;59.38;100561.16;5070696;28;20048;-58
2022/02/24 11:26:39;;;;;;;8.65;1.90;;;;;;;13.22;59.75;100563.72;5072095;28;20045;-47
2022/02/24 11:29:16;;;;;;;10.83;2.13;;;;;;;13.19;57.35;100556.03;5072123;28;20127;-45
2022/02/24 11:31:52;;;;;;;9.82;2.25;;;;;;;12.92;56.71;100544.09;5071859;28;21027;-48
2022/02/24 11:34:54;;;;;;;9.13;1.70;;;;;;;13.11;56.96;100545.25;5072095;28;20469;-45
2022/02/24 11:37:26;;;;;;;8.50;1.40;;;;;;;13.16;57.29;100536.00;5070693;28;20044;-51
2022/02/24 11:40:02;;;;;;;6.30;1.88;;;;;;;13.00;56.74;100525.84;5071983;28;20059;-46